Nootka — WCY3310 — position and weather

sailwx.info

Track history (hours):
 
Tides and Currents Weather Stations Pressure Air Temp Water Temp Dewpoint Dewpoint Depression Visibility Wind Speed Wind Dir Waves Ship Positions

Nootka

Owner: Read 310, William G, Edmonds, WA. More information available from US FCC via Universal Licensing System and Coast Guard Vessel Documentation Center.

Last reported at 2018-May-28 19:16 UTC. Time now 2018-Jun-23 10:01 UTC.
Position N 47°47' W 122°24'.
Warning: this ship's position is 25 days out of date.

Length 13 m.

Type: Sailing vessel. MMSI: 366748220.

Date/timePositionNaut miles runAvg speedWind from/ knotsBaromVisibWave heightAir tempDewpointWater temp
2018-May-28 19:16N 47°47' W 122°24'2 6.2
2018-May-28 18:59N 47°46' W 122°25'3 6.6
2018-May-28 18:30N 47°43' W 122°26'3 6.4
2018-May-28 17:59N 47°39' W 122°27'3 6.5
2018-May-28 17:30N 47°36' W 122°28'3 5.9
2018-May-28 17:00N 47°34' W 122°31'  
2018-May-25 21:17N 47°35' W 122°32'2 6.0
2018-May-25 21:00N 47°35' W 122°30'3 6.5
2018-May-25 20:29N 47°37' W 122°28'3 7.3
2018-May-25 20:00N 47°41' W 122°26'4 7.6
2018-May-25 19:30N 47°45' W 122°25'  
Track history (hours):
 
Tides and Currents Weather Stations Pressure Air Temp Water Temp Dewpoint Dewpoint Depression Visibility Wind Speed Wind Dir Waves Ship Positions

Nootka

Owner: Read 310, William G, Edmonds, WA. More information available from US FCC via Universal Licensing System and Coast Guard Vessel Documentation Center.

Last reported at 2018-May-28 19:16 UTC. Time now 2018-Jun-23 10:01 UTC.
Position N 47°47' W 122°24'.
Warning: this ship's position is 25 days out of date.

Length 13 m.

Type: Sailing vessel. MMSI: 366748220.

Date/timePositionNaut miles runAvg speedWind from/ knotsBaromVisibWave heightAir tempDewpointWater temp
2018-May-28 19:16N 47°47' W 122°24'2 6.2
2018-May-28 18:59N 47°46' W 122°25'3 6.6
2018-May-28 18:30N 47°43' W 122°26'3 6.4
2018-May-28 17:59N 47°39' W 122°27'3 6.5
2018-May-28 17:30N 47°36' W 122°28'3 5.9
2018-May-28 17:00N 47°34' W 122°31'  
2018-May-25 21:17N 47°35' W 122°32'2 6.0
2018-May-25 21:00N 47°35' W 122°30'3 6.5
2018-May-25 20:29N 47°37' W 122°28'3 7.3
2018-May-25 20:00N 47°41' W 122°26'4 7.6
2018-May-25 19:30N 47°45' W 122°25'  

Dump ship's entire track history